Terminal Aerodrome Forecast
Issued by NWS Norman, OK

Home | Current Version | Previous Version | Text Only | Print | Product List | Glossary On
Versions: 1 2 3 4 5 6 7 8 9 10 11 12 13 14
000
FTUS44 KOUN 271130
TAFOKC
TAF
KOKC 271130Z 2712/2812 17006KT P6SM SCT120 BKN250
     FM271700 16009KT P6SM BKN050 BKN150
     FM280100 15006KT P6SM SCT050 BKN250=

USA.gov is the U.S. government's official web portal to all federal, state and local government web resources and services.